createdAt,value
2023-04-28T00:00:48.913Z,15.47
2023-04-28T00:05:55.536Z,15.57
2023-04-28T00:11:00.822Z,15.63
2023-04-28T00:16:06.252Z,15.68
2023-04-28T00:21:11.357Z,15.82
2023-04-28T00:26:16.815Z,15.94
2023-04-28T00:31:22.004Z,16.06
2023-04-28T00:36:27.286Z,16.19
2023-04-28T00:41:31.866Z,16.33
2023-04-28T00:46:38.642Z,16.42
2023-04-28T00:51:44.841Z,16.54
2023-04-28T00:56:50.469Z,16.63
2023-04-28T01:01:55.453Z,16.76
2023-04-28T01:07:03.246Z,16.87
2023-04-28T01:12:08.589Z,16.90
2023-04-28T01:17:21.912Z,16.96
2023-04-28T01:22:27.477Z,17.06
2023-04-28T01:27:32.788Z,17.19
2023-04-28T01:32:39.102Z,17.41
2023-04-28T01:37:43.904Z,17.66
2023-04-28T01:42:49.064Z,17.68
2023-04-28T01:47:53.975Z,17.71
2023-04-28T01:52:59.121Z,17.81
2023-04-28T01:58:04.175Z,17.99
2023-04-28T02:03:10.828Z,18.13
2023-04-28T02:08:15.994Z,18.27
2023-04-28T02:13:21.032Z,18.36
2023-04-28T02:18:25.857Z,18.39
2023-04-28T02:23:30.862Z,18.47
2023-04-28T02:28:36.123Z,18.62
2023-04-28T02:33:46.313Z,18.78
2023-04-28T02:38:52.576Z,18.91
2023-04-28T02:43:59.148Z,19.08
2023-04-28T02:49:04.306Z,19.28
2023-04-28T02:54:09.554Z,19.46
2023-04-28T02:59:14.285Z,19.60
2023-04-28T03:04:21.989Z,19.71
2023-04-28T03:09:27.719Z,19.74
2023-04-28T03:14:32.701Z,19.77
2023-04-28T03:19:41.533Z,19.90
2023-04-28T03:24:47.545Z,20.05
2023-04-28T03:29:53.868Z,20.18
2023-04-28T03:34:59.145Z,20.29
2023-04-28T03:40:05.992Z,20.45
2023-04-28T03:45:27.614Z,20.55
2023-04-28T03:50:32.586Z,20.61
2023-04-28T03:55:39.093Z,20.74
2023-04-28T04:00:44.225Z,20.86
2023-04-28T04:05:49.701Z,20.90
2023-04-28T04:10:56.075Z,21.06
2023-04-28T04:16:00.948Z,21.20
2023-04-28T04:21:07.433Z,21.29
2023-04-28T04:26:12.572Z,21.47
2023-04-28T04:31:18.721Z,21.70
2023-04-28T04:36:24.722Z,21.82
2023-04-28T04:41:30.341Z,21.78
2023-04-28T04:46:51.916Z,21.95
2023-04-28T04:51:58.665Z,22.04
2023-04-28T04:57:03.910Z,22.24
2023-04-28T05:02:34.754Z,22.47
2023-04-28T05:07:42.209Z,22.66
2023-04-28T05:12:49.123Z,22.69
2023-04-28T05:17:56.232Z,22.68
2023-04-28T05:23:01.869Z,22.65
2023-04-28T05:28:08.883Z,22.58
2023-04-28T05:33:15.083Z,22.55
2023-04-28T05:38:22.817Z,22.55
2023-04-28T05:43:29.340Z,22.61
2023-04-28T05:48:34.834Z,22.66
2023-04-28T05:53:40.628Z,22.77
2023-04-28T05:58:49.243Z,22.79
2023-04-28T06:03:55.255Z,22.73
2023-04-28T06:09:00.647Z,22.68
2023-04-28T06:14:05.771Z,22.58
2023-04-28T06:19:11.015Z,22.56
2023-04-28T06:24:17.288Z,22.48
2023-04-28T06:29:25.360Z,22.45
2023-04-28T06:34:30.235Z,22.49
2023-04-28T06:39:35.232Z,22.53
2023-04-28T06:44:40.046Z,22.55
2023-04-28T06:49:46.949Z,22.55
2023-04-28T06:54:54.590Z,22.62
2023-04-28T06:59:59.575Z,22.74
2023-04-28T07:05:05.763Z,22.65
2023-04-28T07:10:11.967Z,22.42
2023-04-28T07:15:17.207Z,22.14
2023-04-28T07:20:22.021Z,21.87
2023-04-28T07:25:27.235Z,21.69
2023-04-28T07:30:32.380Z,21.36
2023-04-28T07:35:37.486Z,20.04
2023-04-28T07:40:44.913Z,17.06
2023-04-28T07:45:51.416Z,15.35
2023-04-28T07:51:00.702Z,14.65
2023-04-28T07:56:06.221Z,14.34
2023-04-28T08:01:11.393Z,14.10
2023-04-28T08:06:16.896Z,13.97
2023-04-28T08:11:23.627Z,13.93
2023-04-28T08:16:28.599Z,14.02
2023-04-28T08:21:34.054Z,14.08
2023-04-28T08:26:40.487Z,14.23
2023-04-28T08:31:47.250Z,14.35
2023-04-28T08:36:53.608Z,14.44
2023-04-28T08:41:59.385Z,14.49
2023-04-28T08:47:12.127Z,14.53
2023-04-28T08:52:20.669Z,14.54
2023-04-28T08:57:29.858Z,14.42
2023-04-28T09:02:35.707Z,14.45
2023-04-28T09:07:41.810Z,14.40
2023-04-28T09:12:52.892Z,14.38
2023-04-28T09:18:00.520Z,14.28
2023-04-28T09:23:30.284Z,14.18
2023-04-28T09:28:37.914Z,14.00
2023-04-28T09:34:02.549Z,13.62
2023-04-28T09:39:08.467Z,13.18
2023-04-28T09:44:19.470Z,12.78
2023-04-28T09:49:24.843Z,12.26
2023-04-28T09:54:33.669Z,11.73
2023-04-28T09:59:41.332Z,11.24
2023-04-28T10:04:53.010Z,10.92
2023-04-28T10:09:59.834Z,10.75
2023-04-28T10:15:11.324Z,10.64
2023-04-28T10:20:22.649Z,10.60
2023-04-28T10:25:36.942Z,10.63
2023-04-28T10:31:20.821Z,10.65
2023-04-28T10:37:00.074Z,10.73
2023-04-28T10:42:06.257Z,10.78
2023-04-28T10:47:15.520Z,10.82
2023-04-28T10:52:45.739Z,10.91
2023-04-28T10:58:22.248Z,11.04
2023-04-28T11:03:52.812Z,11.12
2023-04-28T11:09:04.599Z,11.13
2023-04-28T11:14:22.622Z,11.15
2023-04-28T11:19:39.448Z,11.14
2023-04-28T11:25:08.737Z,11.15
2023-04-28T11:30:33.379Z,11.10
2023-04-28T11:35:45.656Z,11.09
2023-04-28T11:41:05.402Z,11.04
2023-04-28T11:46:16.276Z,11.02
2023-04-28T11:51:41.341Z,10.88
2023-04-28T11:56:53.816Z,10.77
2023-04-28T12:02:04.384Z,10.71
2023-04-28T12:07:15.961Z,10.68
2023-04-28T12:17:51.341Z,10.63
2023-04-28T12:22:59.326Z,10.71
2023-04-28T12:28:11.744Z,10.77
2023-04-28T12:33:27.482Z,10.83
2023-04-28T12:38:34.271Z,10.90
2023-04-28T12:43:45.998Z,10.96
2023-04-28T12:48:59.483Z,11.02
2023-04-28T12:54:06.337Z,11.05
2023-04-28T12:59:16.761Z,10.98
2023-04-28T13:04:28.618Z,11.05
2023-04-28T13:09:36.007Z,10.97
2023-04-28T13:14:44.966Z,10.93
2023-04-28T13:19:53.296Z,10.79
2023-04-28T13:25:06.876Z,10.55
2023-04-28T13:30:15.428Z,10.29
2023-04-28T13:35:25.150Z,10.14
2023-04-28T13:40:33.595Z,9.97
2023-04-28T13:45:39.779Z,9.91
2023-04-28T13:50:59.833Z,9.84
2023-04-28T13:56:10.496Z,9.73
2023-04-28T14:01:22.168Z,9.69
2023-04-28T14:06:34.669Z,9.52
2023-04-28T14:11:42.407Z,9.28
2023-04-28T14:16:50.186Z,9.03
2023-04-28T14:22:09.418Z,8.74
2023-04-28T14:27:24.878Z,8.54
2023-04-28T14:32:31.995Z,8.38
2023-04-28T14:37:39.080Z,8.25
2023-04-28T14:42:49.023Z,8.25
2023-04-28T14:48:02.492Z,8.23
2023-04-28T14:53:08.744Z,8.30
2023-04-28T14:58:19.068Z,8.41
2023-04-28T15:03:33.849Z,8.55
2023-04-28T15:08:43.718Z,8.67
2023-04-28T15:14:05.087Z,8.82
2023-04-28T15:19:13.891Z,8.99
2023-04-28T15:24:26.464Z,9.12
2023-04-28T15:29:34.485Z,9.25
2023-04-28T15:34:47.561Z,9.34
2023-04-28T15:39:54.236Z,9.39
2023-04-28T15:45:05.361Z,9.52
2023-04-28T15:50:12.317Z,9.56
2023-04-28T15:55:22.368Z,9.62
2023-04-28T16:00:33.341Z,9.71
2023-04-28T16:05:48.427Z,9.76
2023-04-28T16:10:59.974Z,9.78
2023-04-28T16:16:12.000Z,9.85
2023-04-28T16:21:21.619Z,9.84
2023-04-28T16:26:32.612Z,9.93
2023-04-28T16:31:40.111Z,9.95
2023-04-28T16:36:55.089Z,9.96
2023-04-28T16:42:02.320Z,9.98
2023-04-28T16:47:09.171Z,10.02
2023-04-28T16:52:17.811Z,10.04
2023-04-28T16:57:24.452Z,10.08
2023-04-28T17:02:30.929Z,10.12
2023-04-28T17:07:40.885Z,10.15
2023-04-28T17:12:49.485Z,10.17
2023-04-28T17:17:55.853Z,10.19
2023-04-28T17:23:02.484Z,10.21
2023-04-28T17:28:09.145Z,10.21
2023-04-28T17:33:18.447Z,10.18
2023-04-28T17:38:27.702Z,10.11
2023-04-28T17:43:34.081Z,10.08
2023-04-28T17:48:39.073Z,10.05
2023-04-28T17:53:43.973Z,10.01
2023-04-28T17:58:53.002Z,9.94
2023-04-28T18:03:59.675Z,9.93
2023-04-28T18:09:05.024Z,9.91
2023-04-28T18:14:10.822Z,9.89
2023-04-28T18:19:16.800Z,9.88
2023-04-28T18:24:22.790Z,9.90
2023-04-28T18:29:28.075Z,9.86
2023-04-28T18:34:33.647Z,9.85
2023-04-28T18:39:38.821Z,9.81
2023-04-28T18:44:43.979Z,9.73
2023-04-28T18:49:48.495Z,9.71
2023-04-28T18:54:54.168Z,9.61
2023-04-28T19:00:00.867Z,9.54
2023-04-28T19:05:07.131Z,9.49
2023-04-28T19:10:14.242Z,9.42
2023-04-28T19:15:20.089Z,9.36
2023-04-28T19:20:25.453Z,9.32
2023-04-28T19:25:36.384Z,9.26
2023-04-28T19:30:41.358Z,9.19
2023-04-28T19:35:46.178Z,9.11
2023-04-28T19:40:52.259Z,9.02
2023-04-28T19:45:58.320Z,8.89
2023-04-28T19:51:03.685Z,8.84
2023-04-28T19:56:11.415Z,8.78
2023-04-28T20:01:16.894Z,8.70
2023-04-28T20:06:21.985Z,8.59
2023-04-28T20:11:27.247Z,8.51
2023-04-28T20:16:32.715Z,8.33
2023-04-28T20:21:38.214Z,8.28
2023-04-28T20:26:44.153Z,8.22
2023-04-28T20:31:49.579Z,8.21
2023-04-28T20:36:55.531Z,8.17
2023-04-28T20:42:01.938Z,8.07
2023-04-28T20:47:07.117Z,7.98
2023-04-28T20:52:13.200Z,7.93
2023-04-28T20:57:18.101Z,7.89
2023-04-28T21:02:23.573Z,7.93
2023-04-28T21:07:28.779Z,8.12
2023-04-28T21:12:34.110Z,8.20
2023-04-28T21:17:38.937Z,8.10
2023-04-28T21:22:43.831Z,7.94
2023-04-28T21:27:49.160Z,7.83
2023-04-28T21:32:54.907Z,7.76
2023-04-28T21:37:59.264Z,7.71
2023-04-28T21:43:04.318Z,7.64
2023-04-28T21:48:09.781Z,7.66
2023-04-28T21:53:15.327Z,7.68
2023-04-28T21:58:20.619Z,7.68
2023-04-28T22:03:26.133Z,7.73
2023-04-28T22:08:33.073Z,7.80
2023-04-28T22:13:38.236Z,7.87
2023-04-28T22:18:43.584Z,8.01
2023-04-28T22:23:48.440Z,8.17
2023-04-28T22:29:05.780Z,8.36
2023-04-28T22:34:11.725Z,8.55
2023-04-28T22:39:16.761Z,8.75
2023-04-28T22:44:22.259Z,8.95
2023-04-28T22:49:29.816Z,9.10
2023-04-28T22:54:35.004Z,9.36
2023-04-28T22:59:41.152Z,9.66
2023-04-28T23:04:46.032Z,10.00
2023-04-28T23:09:51.277Z,10.30
2023-04-28T23:15:00.796Z,10.56
2023-04-28T23:20:06.367Z,10.82
2023-04-28T23:25:11.973Z,11.08
2023-04-28T23:30:17.454Z,11.27
2023-04-28T23:35:25.447Z,11.53
2023-04-28T23:40:31.529Z,11.77
2023-04-28T23:45:37.291Z,11.98
2023-04-28T23:50:42.519Z,12.19
2023-04-28T23:55:52.335Z,12.37
